Finn Falgout — WDG9283 — position and weather

sailwx.info

Track history (hours):
 
Tides and Currents Weather Stations Pressure Air Temp Water Temp Dewpoint Dewpoint Depression Visibility Wind Speed Wind Dir Waves Ship Positions

Finn Falgout

Owner: Finn Falgout Marine LLC, Larose, LA. More information available from US FCC via Universal Licensing System and Coast Guard Vessel Documentation Center.

Last reported at 2018-Jun-18 18:39 UTC. Time now 2018-Aug-19 23:12 UTC.
Position N 26°28' W 079°47'.
Warning: this ship's position is months out of date.

Length 45 m.

Type: Tow > 200 m length. MMSI: 367586250.

Date/timePositionNaut miles runAvg speedWind from/ knotsBaromVisibWave heightAir tempDewpointWater temp
2018-Jun-18 18:39N 26°28' W 079°47'212.0
2018-Jun-18 18:29N 26°26' W 079°48'612.0
2018-Jun-18 17:59N 26°20' W 079°48'611.8
2018-Jun-18 17:30N 26°15' W 079°48'611.7
2018-Jun-18 17:00N 26°09' W 079°48'611.6
2018-Jun-18 16:29N 26°03' W 079°47'511.4
2018-Jun-18 16:00N 25°58' W 079°46'611.4
2018-Jun-18 15:30N 25°52' W 079°45'611.4
2018-Jun-18 15:00N 25°46' W 079°44'611.3
2018-Jun-18 14:29N 25°40' W 079°43'511.1
2018-Jun-18 14:00N 25°35' W 079°42'  
Track history (hours):
 
Tides and Currents Weather Stations Pressure Air Temp Water Temp Dewpoint Dewpoint Depression Visibility Wind Speed Wind Dir Waves Ship Positions

Finn Falgout

Owner: Finn Falgout Marine LLC, Larose, LA. More information available from US FCC via Universal Licensing System and Coast Guard Vessel Documentation Center.

Last reported at 2018-Jun-18 18:39 UTC. Time now 2018-Aug-19 23:12 UTC.
Position N 26°28' W 079°47'.
Warning: this ship's position is months out of date.

Length 45 m.

Type: Tow > 200 m length. MMSI: 367586250.

Date/timePositionNaut miles runAvg speedWind from/ knotsBaromVisibWave heightAir tempDewpointWater temp
2018-Jun-18 18:39N 26°28' W 079°47'212.0
2018-Jun-18 18:29N 26°26' W 079°48'612.0
2018-Jun-18 17:59N 26°20' W 079°48'611.8
2018-Jun-18 17:30N 26°15' W 079°48'611.7
2018-Jun-18 17:00N 26°09' W 079°48'611.6
2018-Jun-18 16:29N 26°03' W 079°47'511.4
2018-Jun-18 16:00N 25°58' W 079°46'611.4
2018-Jun-18 15:30N 25°52' W 079°45'611.4
2018-Jun-18 15:00N 25°46' W 079°44'611.3
2018-Jun-18 14:29N 25°40' W 079°43'511.1
2018-Jun-18 14:00N 25°35' W 079°42'  

Dump ship's entire track history